createdAt,value
2023-04-19T00:00:08.236Z,13.93
2023-04-19T00:02:36.574Z,14.34
2023-04-19T00:05:05.311Z,14.57
2023-04-19T00:07:33.710Z,14.03
2023-04-19T00:10:01.624Z,14.67
2023-04-19T00:12:29.586Z,13.87
2023-04-19T00:14:58.826Z,14.60
2023-04-19T00:17:27.300Z,14.58
2023-04-19T00:19:55.233Z,14.44
2023-04-19T00:22:23.129Z,14.25
2023-04-19T00:24:51.036Z,14.43
2023-04-19T00:27:19.055Z,14.42
2023-04-19T00:29:47.002Z,14.70
2023-04-19T00:32:16.484Z,14.54
2023-04-19T00:34:44.377Z,14.79
2023-04-19T00:37:12.310Z,14.23
2023-04-19T00:39:40.618Z,14.69
2023-04-19T00:42:08.570Z,14.37
2023-04-19T00:44:36.566Z,14.13
2023-04-19T00:47:04.545Z,14.70
2023-04-19T00:49:33.846Z,14.84
2023-04-19T00:52:01.847Z,14.96
2023-04-19T00:54:29.848Z,14.79
2023-04-19T00:56:58.414Z,14.96
2023-04-19T00:59:26.356Z,14.75
2023-04-19T01:01:54.845Z,14.96
2023-04-19T01:04:23.414Z,15.03
2023-04-19T01:06:53.265Z,15.15
2023-04-19T01:09:21.190Z,14.85
2023-04-19T01:11:49.107Z,14.66
2023-04-19T01:14:17.216Z,14.64
2023-04-19T01:16:48.009Z,14.40
2023-04-19T01:19:16.799Z,14.57
2023-04-19T01:21:46.401Z,14.60
2023-04-19T01:24:16.094Z,14.65
2023-04-19T01:26:44.212Z,14.77
2023-04-19T01:29:12.150Z,15.06
2023-04-19T01:31:40.068Z,14.68
2023-04-19T01:34:08.100Z,14.99
2023-04-19T01:36:36.063Z,14.38
2023-04-19T01:39:03.964Z,14.30
2023-04-19T01:41:33.218Z,14.28
2023-04-19T01:44:01.743Z,14.41
2023-04-19T01:46:29.856Z,14.52
2023-04-19T01:48:57.787Z,14.75
2023-04-19T01:51:25.910Z,14.86
2023-04-19T01:53:53.823Z,14.79
2023-04-19T01:56:23.944Z,14.77
2023-04-19T01:58:53.355Z,14.80
2023-04-19T02:01:21.395Z,14.99
2023-04-19T02:03:49.673Z,15.02
2023-04-19T02:06:17.664Z,14.52
2023-04-19T02:08:45.596Z,14.60
2023-04-19T02:11:15.469Z,14.17
2023-04-19T02:13:44.067Z,14.82
2023-04-19T02:16:13.461Z,14.08
2023-04-19T02:18:41.593Z,14.29
2023-04-19T02:21:10.973Z,14.43
2023-04-19T02:23:39.034Z,13.92
2023-04-19T02:26:07.037Z,14.41
2023-04-19T02:28:35.840Z,14.50
2023-04-19T02:31:06.647Z,14.45
2023-04-19T02:33:37.449Z,14.45
2023-04-19T02:36:05.594Z,14.17
2023-04-19T02:38:34.785Z,13.60
2023-04-19T02:41:04.472Z,13.82
2023-04-19T02:43:32.551Z,13.69
2023-04-19T02:46:00.480Z,13.80
2023-04-19T02:48:28.406Z,14.13
2023-04-19T02:50:57.746Z,13.76
2023-04-19T02:53:25.682Z,13.94
2023-04-19T02:55:53.748Z,13.55
2023-04-19T02:58:21.893Z,14.23
2023-04-19T03:01:16.138Z,14.50
2023-04-19T03:03:44.358Z,14.43
2023-04-19T03:06:13.851Z,14.56
2023-04-19T03:08:41.720Z,14.10
2023-04-19T03:11:09.584Z,13.66
2023-04-19T03:13:37.635Z,14.02
2023-04-19T03:16:06.275Z,14.16
2023-04-19T03:18:34.246Z,13.72
2023-04-19T03:21:05.192Z,13.66
2023-04-19T03:23:42.722Z,13.87
2023-04-19T03:26:10.688Z,14.09
2023-04-19T03:28:43.138Z,13.91
2023-04-19T03:31:31.506Z,12.65
2023-04-19T03:34:00.318Z,13.93
2023-04-19T03:36:34.733Z,14.35
2023-04-19T03:39:05.551Z,14.29
2023-04-19T03:41:33.938Z,13.73
2023-04-19T03:44:18.979Z,13.55
2023-04-19T03:46:48.790Z,13.11
2023-04-19T03:49:20.503Z,12.96
2023-04-19T03:51:53.497Z,13.41
2023-04-19T03:54:22.779Z,13.19
2023-04-19T03:56:50.657Z,13.31
2023-04-19T03:59:18.662Z,13.41
2023-04-19T04:01:47.464Z,13.51
2023-04-19T04:04:16.095Z,13.57
2023-04-19T04:06:45.587Z,13.03
2023-04-19T04:09:16.303Z,13.31
2023-04-19T04:11:46.054Z,12.92
2023-04-19T04:14:14.265Z,12.78
2023-04-19T04:16:42.745Z,13.12
2023-04-19T04:19:11.020Z,13.22
2023-04-19T04:21:41.940Z,13.08
2023-04-19T04:24:10.732Z,12.86
2023-04-19T04:26:47.079Z,13.19
2023-04-19T04:29:21.797Z,13.50
2023-04-19T04:31:51.908Z,12.97
2023-04-19T04:34:24.672Z,12.73
2023-04-19T04:36:59.627Z,12.72
2023-04-19T04:39:27.945Z,13.01
2023-04-19T04:41:57.731Z,12.75
2023-04-19T04:44:25.996Z,13.12
2023-04-19T04:46:54.230Z,13.24
2023-04-19T04:49:26.554Z,13.19
2023-04-19T04:51:54.445Z,12.85
2023-04-19T04:54:23.070Z,12.92
2023-04-19T04:56:51.271Z,13.00
2023-04-19T04:59:20.687Z,12.84
2023-04-19T05:01:50.846Z,12.57
2023-04-19T05:04:19.919Z,12.47
2023-04-19T05:06:48.068Z,12.81
2023-04-19T05:09:29.381Z,12.67
2023-04-19T05:11:58.101Z,12.39
2023-04-19T05:14:27.461Z,12.60
2023-04-19T05:16:55.802Z,12.94
2023-04-19T05:19:23.746Z,12.83
2023-04-19T05:21:58.014Z,12.29
2023-04-19T05:24:26.077Z,12.96
2023-04-19T05:26:54.519Z,12.40
2023-04-19T05:29:23.035Z,12.45
2023-04-19T05:31:56.699Z,12.70
2023-04-19T05:34:37.683Z,12.17
2023-04-19T05:37:06.606Z,12.33
2023-04-19T05:39:34.550Z,12.77
2023-04-19T05:42:02.954Z,13.11
2023-04-19T05:44:30.880Z,13.05
2023-04-19T05:47:00.664Z,12.98
2023-04-19T05:49:51.367Z,12.37
2023-04-19T05:52:26.122Z,13.17
2023-04-19T05:54:56.852Z,13.45
2023-04-19T05:57:24.900Z,13.25
2023-04-19T05:59:52.876Z,12.71
2023-04-19T06:02:26.338Z,12.24
2023-04-19T06:04:54.510Z,12.15
2023-04-19T06:07:31.703Z,12.01
2023-04-19T06:10:02.350Z,12.80
2023-04-19T06:12:30.378Z,12.15
2023-04-19T06:14:58.330Z,13.07
2023-04-19T06:17:28.514Z,12.09
2023-04-19T06:19:56.471Z,12.14
2023-04-19T06:22:24.581Z,12.78
2023-04-19T06:24:52.457Z,11.88
2023-04-19T06:27:20.393Z,12.03
2023-04-19T06:29:49.873Z,12.68
2023-04-19T06:32:19.375Z,12.52
2023-04-19T06:34:48.737Z,13.06
2023-04-19T06:37:16.665Z,12.83
2023-04-19T06:39:44.559Z,13.27
2023-04-19T06:42:12.901Z,13.01
2023-04-19T06:44:40.923Z,12.67
2023-04-19T06:47:08.783Z,12.89
2023-04-19T06:49:36.628Z,12.71
2023-04-19T06:52:06.099Z,12.69
2023-04-19T06:54:33.993Z,13.09
2023-04-19T06:57:02.677Z,12.83
2023-04-19T06:59:32.322Z,13.48
2023-04-19T07:02:00.313Z,13.09
2023-04-19T07:04:28.477Z,12.90
2023-04-19T07:06:56.468Z,13.64
2023-04-19T07:09:25.763Z,13.48
2023-04-19T07:11:53.738Z,13.11
2023-04-19T07:14:21.756Z,13.48
2023-04-19T07:16:50.850Z,13.71
2023-04-19T07:19:20.679Z,13.78
2023-04-19T07:21:48.574Z,13.21
2023-04-19T07:24:17.514Z,13.30
2023-04-19T07:26:47.001Z,13.49
2023-04-19T07:29:15.097Z,13.21
2023-04-19T07:31:43.094Z,13.52
2023-04-19T07:34:17.243Z,13.47
2023-04-19T07:36:45.441Z,13.55
2023-04-19T07:39:13.779Z,13.34
2023-04-19T07:41:41.668Z,13.30
2023-04-19T07:44:11.580Z,13.39
2023-04-19T07:46:39.521Z,13.72
2023-04-19T07:49:07.460Z,13.86
2023-04-19T07:51:35.435Z,14.51
2023-04-19T07:54:03.559Z,13.84
2023-04-19T07:56:31.686Z,13.75
2023-04-19T07:59:07.616Z,13.91
2023-04-19T08:01:38.256Z,14.39
2023-04-19T08:04:06.677Z,13.78
2023-04-19T08:06:34.867Z,14.26
2023-04-19T08:09:03.075Z,14.13
2023-04-19T08:11:31.052Z,13.46
2023-04-19T08:14:26.860Z,13.78
2023-04-19T08:19:19.168Z,13.13
2023-04-19T08:21:47.166Z,13.07
2023-04-19T08:24:15.323Z,13.06
2023-04-19T08:26:43.503Z,13.56
2023-04-19T08:29:11.386Z,13.44
2023-04-19T08:31:39.365Z,13.53
2023-04-19T08:34:08.652Z,13.23
2023-04-19T08:36:43.363Z,13.66
2023-04-19T08:39:18.045Z,13.67
2023-04-19T08:42:02.714Z,13.78
2023-04-19T08:44:36.835Z,13.88
2023-04-19T08:47:08.237Z,13.99
2023-04-19T08:49:43.270Z,14.52
2023-04-19T08:52:14.767Z,14.44
2023-04-19T08:54:43.571Z,15.14
2023-04-19T08:57:12.452Z,15.19
2023-04-19T08:59:40.699Z,14.15
2023-04-19T09:02:08.710Z,14.13
2023-04-19T09:04:38.355Z,14.63
2023-04-19T09:07:08.255Z,14.93
2023-04-19T09:09:45.753Z,15.69
2023-04-19T09:12:23.741Z,15.70
2023-04-19T09:15:01.334Z,16.00
2023-04-19T09:17:30.535Z,15.61
2023-04-19T09:20:00.298Z,15.90
2023-04-19T09:22:28.251Z,14.99
2023-04-19T09:27:29.266Z,14.86
2023-04-19T09:29:58.378Z,15.35
2023-04-19T09:32:27.124Z,15.55
2023-04-19T09:34:56.735Z,15.25
2023-04-19T09:37:51.471Z,15.52
2023-04-19T09:40:23.429Z,15.59
2023-04-19T09:48:03.359Z,16.05
2023-04-19T09:50:32.186Z,16.60
2023-04-19T09:53:03.643Z,15.95
2023-04-19T09:55:38.555Z,15.97
2023-04-19T09:58:16.830Z,16.16
2023-04-19T10:00:49.043Z,15.58
2023-04-19T10:03:22.069Z,15.99
2023-04-19T10:05:51.405Z,16.29
2023-04-19T10:08:21.207Z,15.76
2023-04-19T10:10:54.900Z,15.26
2023-04-19T10:13:26.705Z,16.61
2023-04-19T10:15:59.369Z,16.34
2023-04-19T10:18:36.753Z,16.17
2023-04-19T10:21:08.816Z,16.38
2023-04-19T10:23:38.602Z,16.77
2023-04-19T10:26:07.350Z,16.23
2023-04-19T10:28:37.913Z,16.83
2023-04-19T10:31:06.408Z,15.94
2023-04-19T10:33:36.859Z,16.45
2023-04-19T10:36:05.837Z,17.58
2023-04-19T10:38:41.416Z,15.62
2023-04-19T10:41:16.897Z,16.02
2023-04-19T10:43:47.687Z,16.81
2023-04-19T10:46:17.970Z,16.92
2023-04-19T10:48:54.551Z,16.95
2023-04-19T10:51:24.523Z,18.46
2023-04-19T10:53:59.180Z,19.45
2023-04-19T10:57:11.177Z,19.46
2023-04-19T10:59:40.431Z,20.83
2023-04-19T11:02:29.463Z,22.27
2023-04-19T11:05:06.916Z,22.37
2023-04-19T11:07:39.891Z,22.14
2023-04-19T11:10:11.651Z,22.73
2023-04-19T11:12:44.975Z,22.89
2023-04-19T11:15:12.941Z,23.37
2023-04-19T11:17:42.521Z,23.20
2023-04-19T11:20:11.876Z,23.01
2023-04-19T11:22:41.643Z,22.97
2023-04-19T11:25:13.116Z,23.59
2023-04-19T11:27:42.842Z,23.13
2023-04-19T11:30:13.057Z,22.72
2023-04-19T11:32:46.900Z,21.73
2023-04-19T11:35:15.436Z,22.96
2023-04-19T11:37:43.321Z,23.98
2023-04-19T11:40:16.750Z,23.62
2023-04-19T11:42:45.074Z,24.59
2023-04-19T11:45:25.825Z,25.17
2023-04-19T11:47:57.539Z,25.18
2023-04-19T11:50:34.275Z,26.10
2023-04-19T11:53:11.645Z,24.59
2023-04-19T11:55:43.911Z,25.14
2023-04-19T11:58:25.115Z,26.02
2023-04-19T12:00:53.098Z,25.93
2023-04-19T12:03:26.157Z,23.16
2023-04-19T12:05:58.944Z,24.67
2023-04-19T12:08:34.972Z,25.43
2023-04-19T12:11:05.622Z,24.63
2023-04-19T12:13:34.255Z,27.26
2023-04-19T12:16:02.669Z,28.10
2023-04-19T12:18:44.679Z,25.43
2023-04-19T12:21:13.720Z,27.04
2023-04-19T12:23:41.755Z,28.03
2023-04-19T12:26:11.591Z,25.52
2023-04-19T12:28:39.590Z,27.47
2023-04-19T12:31:07.501Z,28.42
2023-04-19T12:33:35.444Z,29.13
2023-04-19T12:36:03.393Z,29.26
2023-04-19T12:38:31.343Z,29.74
2023-04-19T12:40:59.309Z,28.89
2023-04-19T12:43:30.089Z,26.48
2023-04-19T12:45:58.360Z,28.09
2023-04-19T12:48:26.393Z,28.11
2023-04-19T12:50:55.041Z,29.08
2023-04-19T12:53:24.266Z,29.70
2023-04-19T12:55:52.238Z,29.68
2023-04-19T12:58:21.316Z,28.74
2023-04-19T13:00:50.712Z,28.34
2023-04-19T13:03:18.958Z,28.10
2023-04-19T13:05:47.295Z,29.95
2023-04-19T13:08:15.146Z,30.35
2023-04-19T13:10:54.744Z,29.86
2023-04-19T13:13:22.858Z,31.03
2023-04-19T13:15:52.106Z,30.06
2023-04-19T13:18:20.390Z,30.09
2023-04-19T13:20:48.844Z,29.78
2023-04-19T13:23:16.792Z,30.49
2023-04-19T13:25:44.703Z,29.35
2023-04-19T13:28:12.594Z,31.68
2023-04-19T13:30:41.055Z,30.42
2023-04-19T13:33:10.415Z,31.08
2023-04-19T13:35:38.298Z,28.50
2023-04-19T13:38:06.277Z,25.99
2023-04-19T13:40:34.373Z,28.77
2023-04-19T13:43:02.321Z,28.88
2023-04-19T13:45:30.241Z,32.33
2023-04-19T13:47:58.377Z,30.88
2023-04-19T13:50:27.723Z,31.46
2023-04-19T13:52:55.778Z,30.64
2023-04-19T13:55:23.800Z,31.99
2023-04-19T13:57:51.715Z,32.54
2023-04-19T14:00:21.313Z,31.67
2023-04-19T14:02:52.145Z,33.76
2023-04-19T14:05:20.719Z,33.52
2023-04-19T14:07:50.111Z,31.53
2023-04-19T14:10:18.112Z,31.32
2023-04-19T14:12:46.126Z,32.27
2023-04-19T14:15:14.398Z,32.20
2023-04-19T14:17:42.351Z,32.57
2023-04-19T14:20:11.237Z,30.98
2023-04-19T14:22:39.416Z,31.09
2023-04-19T14:25:09.450Z,32.86
2023-04-19T14:27:38.395Z,31.55
2023-04-19T14:30:07.494Z,32.28
2023-04-19T14:32:35.671Z,33.00
2023-04-19T14:35:03.757Z,33.95
2023-04-19T14:37:31.803Z,33.39
2023-04-19T14:39:59.749Z,33.17
2023-04-19T14:42:29.068Z,35.26
2023-04-19T14:44:56.970Z,33.32
2023-04-19T14:47:25.084Z,33.88
2023-04-19T14:49:53.294Z,33.42
2023-04-19T14:52:21.439Z,31.22
2023-04-19T14:54:49.365Z,31.93
2023-04-19T14:57:17.440Z,31.86
2023-04-19T14:59:46.900Z,34.00
2023-04-19T15:02:14.933Z,30.27
2023-04-19T15:04:43.154Z,31.59
2023-04-19T15:07:11.302Z,32.21
2023-04-19T15:09:40.233Z,33.31
2023-04-19T15:12:08.191Z,32.53
2023-04-19T15:14:36.205Z,31.25
2023-04-19T15:17:05.478Z,28.30
2023-04-19T15:19:33.449Z,27.51
2023-04-19T15:22:01.297Z,26.97
2023-04-19T15:24:29.220Z,25.54
2023-04-19T15:26:58.821Z,24.78
2023-04-19T15:29:26.809Z,24.09
2023-04-19T15:31:54.790Z,24.51
2023-04-19T15:34:25.353Z,25.45
2023-04-19T15:36:53.312Z,26.49
2023-04-19T15:39:21.203Z,25.66
2023-04-19T15:41:49.206Z,24.88
2023-04-19T15:44:17.141Z,25.36
2023-04-19T15:46:44.965Z,23.85
2023-04-19T15:49:13.001Z,22.90
2023-04-19T15:51:42.295Z,23.31
2023-04-19T15:54:11.079Z,23.91
2023-04-19T15:56:39.015Z,24.54
2023-04-19T15:59:06.946Z,24.09
2023-04-19T16:01:34.920Z,24.85
2023-04-19T16:04:04.140Z,22.80
2023-04-19T16:06:32.373Z,22.18
2023-04-19T16:09:01.663Z,22.48
2023-04-19T16:11:29.704Z,21.28
2023-04-19T16:13:57.692Z,23.11
2023-04-19T16:16:26.684Z,22.06
2023-04-19T16:18:54.616Z,21.54
2023-04-19T16:21:22.538Z,21.60
2023-04-19T16:23:50.526Z,21.25
2023-04-19T16:26:19.738Z,19.62
2023-04-19T16:28:48.225Z,19.59
2023-04-19T16:31:16.231Z,19.56
2023-04-19T16:33:44.140Z,20.24
2023-04-19T16:36:12.043Z,20.97
2023-04-19T16:38:39.910Z,21.53
2023-04-19T16:41:07.782Z,22.93
2023-04-19T16:43:37.274Z,23.40
2023-04-19T16:46:07.051Z,23.34
2023-04-19T16:48:35.138Z,22.26
2023-04-19T16:51:03.184Z,18.91
2023-04-19T16:53:32.361Z,17.40
2023-04-19T16:56:03.392Z,16.89
2023-04-19T16:58:31.751Z,19.73
2023-04-19T17:01:02.607Z,22.37
2023-04-19T17:03:30.707Z,22.32
2023-04-19T17:05:58.870Z,18.87
2023-04-19T17:08:26.900Z,17.60
2023-04-19T17:10:54.785Z,16.02
2023-04-19T17:13:22.693Z,15.98
2023-04-19T17:15:50.658Z,16.82
2023-04-19T17:18:20.000Z,17.79
2023-04-19T17:20:48.078Z,19.58
2023-04-19T17:23:16.029Z,19.17
2023-04-19T17:25:44.066Z,19.92
2023-04-19T17:28:11.927Z,19.40
2023-04-19T17:30:40.854Z,20.03
2023-04-19T17:33:08.784Z,19.65
2023-04-19T17:35:38.214Z,19.59
2023-04-19T17:38:06.251Z,19.00
2023-04-19T17:40:34.074Z,18.21
2023-04-19T17:43:02.130Z,18.45
2023-04-19T17:45:30.028Z,17.75
2023-04-19T17:47:58.031Z,16.60
2023-04-19T17:50:26.601Z,16.28
2023-04-19T17:52:56.103Z,16.94
2023-04-19T17:55:25.492Z,17.09
2023-04-19T17:57:53.391Z,16.94
2023-04-19T18:00:21.785Z,16.12
2023-04-19T18:02:50.404Z,15.09
2023-04-19T18:05:18.603Z,14.24
2023-04-19T18:07:46.473Z,13.92
2023-04-19T18:10:15.763Z,13.83
2023-04-19T18:12:43.633Z,13.37
2023-04-19T18:15:12.475Z,13.16
2023-04-19T18:17:41.306Z,13.26
2023-04-19T18:20:11.866Z,12.84
2023-04-19T18:22:41.812Z,12.77
2023-04-19T18:25:10.949Z,12.91
2023-04-19T18:27:40.307Z,12.69
2023-04-19T18:30:09.405Z,12.88
2023-04-19T18:32:37.968Z,12.50
2023-04-19T18:35:08.799Z,12.78
2023-04-19T18:37:36.859Z,12.08
2023-04-19T18:40:07.342Z,12.06
2023-04-19T18:42:35.363Z,12.24
2023-04-19T18:45:05.997Z,12.22
2023-04-19T18:47:33.967Z,12.32
2023-04-19T18:50:05.697Z,12.03
2023-04-19T18:52:35.185Z,12.14
2023-04-19T18:55:03.302Z,12.05
2023-04-19T18:57:34.705Z,12.10
2023-04-19T19:00:06.648Z,11.65
2023-04-19T19:02:37.010Z,11.78
2023-04-19T19:05:08.205Z,11.52
2023-04-19T19:07:51.407Z,11.47
2023-04-19T19:10:22.386Z,11.31
2023-04-19T19:12:54.612Z,11.64
2023-04-19T19:15:23.941Z,11.05
2023-04-19T19:17:51.861Z,11.28
2023-04-19T19:20:20.156Z,11.36
2023-04-19T19:22:48.278Z,11.28
2023-04-19T19:25:16.453Z,11.06
2023-04-19T19:27:58.455Z,11.03
2023-04-19T19:30:34.765Z,10.89
2023-04-19T19:33:04.772Z,11.04
2023-04-19T19:35:34.754Z,10.93
2023-04-19T19:38:02.872Z,10.59
2023-04-19T19:40:32.388Z,10.98
2023-04-19T19:43:01.329Z,10.94
2023-04-19T19:45:29.979Z,10.65
2023-04-19T19:48:00.712Z,10.86
2023-04-19T19:53:00.646Z,10.44
2023-04-19T19:55:28.912Z,10.78
2023-04-19T20:03:00.292Z,10.39
2023-04-19T20:05:29.086Z,10.55
2023-04-19T20:08:07.960Z,10.36
2023-04-19T20:10:36.697Z,10.37
2023-04-19T20:13:06.226Z,10.10
2023-04-19T20:15:34.875Z,10.24
2023-04-19T20:18:04.652Z,10.02
2023-04-19T20:20:32.875Z,10.96
2023-04-19T20:23:00.762Z,10.08
2023-04-19T20:25:28.682Z,10.10
2023-04-19T20:27:56.602Z,9.99
2023-04-19T20:30:24.768Z,10.08
2023-04-19T20:32:52.842Z,9.85
2023-04-19T20:35:23.187Z,9.56
2023-04-19T20:37:52.037Z,9.60
2023-04-19T20:40:20.017Z,9.77
2023-04-19T20:42:48.063Z,9.67
2023-04-19T20:45:16.105Z,9.44
2023-04-19T20:47:44.091Z,9.82
2023-04-19T20:50:12.305Z,9.48
2023-04-19T20:52:41.767Z,9.68
2023-04-19T20:55:10.425Z,9.51
2023-04-19T20:57:38.339Z,9.43
2023-04-19T21:00:08.834Z,9.27
2023-04-19T21:02:36.973Z,9.36
2023-04-19T21:05:05.381Z,9.46
2023-04-19T21:07:33.606Z,9.17
2023-04-19T21:10:02.951Z,9.31
2023-04-19T21:12:30.946Z,9.41
2023-04-19T21:15:00.389Z,9.47
2023-04-19T21:17:28.856Z,9.52
2023-04-19T21:19:56.762Z,9.11
2023-04-19T21:22:24.733Z,9.31
2023-04-19T21:24:52.581Z,9.57
2023-04-19T21:27:21.889Z,9.51
2023-04-19T21:29:50.107Z,9.37
2023-04-19T21:32:18.489Z,9.39
2023-04-19T21:34:48.110Z,9.27
2023-04-19T21:37:16.474Z,9.29
2023-04-19T21:39:44.364Z,9.33
2023-04-19T21:42:12.353Z,9.37
2023-04-19T21:44:41.647Z,9.28
2023-04-19T21:47:09.958Z,9.26
2023-04-19T21:49:38.099Z,9.42
2023-04-19T21:52:06.993Z,9.69
2023-04-19T21:54:35.172Z,9.59
2023-04-19T21:57:03.431Z,9.42
2023-04-19T21:59:31.792Z,9.43
2023-04-19T22:02:01.303Z,9.64
2023-04-19T22:04:30.952Z,9.39
2023-04-19T22:07:02.203Z,9.63
2023-04-19T22:09:30.763Z,9.53
2023-04-19T22:12:00.157Z,9.27
2023-04-19T22:14:28.461Z,9.32
2023-04-19T22:16:56.660Z,9.17
2023-04-19T22:19:26.051Z,9.12
2023-04-19T22:21:55.087Z,9.16
2023-04-19T22:24:23.278Z,9.14
2023-04-19T22:26:53.012Z,8.85
2023-04-19T22:29:21.397Z,8.95
2023-04-19T22:31:49.382Z,8.99
2023-04-19T22:34:17.495Z,9.04
2023-04-19T22:36:46.802Z,8.96
2023-04-19T22:39:16.117Z,8.82
2023-04-19T22:41:44.309Z,8.80
2023-04-19T22:44:12.178Z,9.04
2023-04-19T22:46:40.301Z,8.57
2023-04-19T22:49:10.107Z,8.90
2023-04-19T22:51:38.486Z,9.08
2023-04-19T22:54:07.821Z,9.02
2023-04-19T22:56:35.772Z,8.91
2023-04-19T22:59:03.718Z,8.87
2023-04-19T23:01:31.849Z,8.87
2023-04-19T23:03:59.913Z,8.91
2023-04-19T23:06:29.092Z,8.86
2023-04-19T23:08:57.346Z,8.88
2023-04-19T23:11:26.925Z,8.85
2023-04-19T23:13:54.862Z,9.10
2023-04-19T23:16:24.494Z,9.13
2023-04-19T23:18:52.738Z,9.30
2023-04-19T23:21:20.705Z,9.57
2023-04-19T23:23:48.617Z,9.58
2023-04-19T23:26:16.536Z,9.62
2023-04-19T23:28:45.828Z,9.57
2023-04-19T23:31:13.815Z,9.43
2023-04-19T23:33:41.798Z,9.28
2023-04-19T23:36:10.074Z,9.40
2023-04-19T23:38:37.933Z,9.39
2023-04-19T23:41:05.990Z,9.34
2023-04-19T23:43:33.851Z,9.22
2023-04-19T23:46:03.166Z,9.35
2023-04-19T23:48:31.210Z,9.45
2023-04-19T23:50:59.181Z,9.08
2023-04-19T23:53:27.209Z,9.44
2023-04-19T23:55:55.075Z,9.60
2023-04-19T23:58:23.045Z,9.48
